createdAt,value
2023-04-23T00:00:43.896Z,9.30
2023-04-23T00:03:13.093Z,9.30
2023-04-23T00:05:42.201Z,9.30
2023-04-23T00:08:11.395Z,9.30
2023-04-23T00:10:39.507Z,9.20
2023-04-23T00:13:10.193Z,9.30
2023-04-23T00:15:38.505Z,9.30
2023-04-23T00:18:06.568Z,9.30
2023-04-23T00:20:35.782Z,9.20
2023-04-23T00:23:03.606Z,9.30
2023-04-23T00:25:31.449Z,9.20
2023-04-23T00:27:59.420Z,9.40
2023-04-23T00:30:28.584Z,9.20
2023-04-23T00:32:56.551Z,9.20
2023-04-23T00:35:24.414Z,9.20
2023-04-23T00:37:52.251Z,9.10
2023-04-23T00:40:20.964Z,9.10
2023-04-23T00:42:49.247Z,9.10
2023-04-23T00:45:17.110Z,9.20
2023-04-23T00:47:47.341Z,9.20
2023-04-23T00:50:15.375Z,9.20
2023-04-23T00:52:43.238Z,9.30
2023-04-23T00:55:11.453Z,9.30
2023-04-23T00:57:39.939Z,9.40
2023-04-23T01:00:08.608Z,9.40
2023-04-23T01:02:38.617Z,9.40
2023-04-23T01:05:08.784Z,9.40
2023-04-23T01:07:36.806Z,9.40
2023-04-23T01:10:05.984Z,9.40
2023-04-23T01:12:34.317Z,9.50
2023-04-23T01:15:02.184Z,9.40
2023-04-23T01:17:30.336Z,9.50
2023-04-23T01:19:58.150Z,9.50
2023-04-23T01:22:27.348Z,9.50
2023-04-23T01:24:56.021Z,9.50
2023-04-23T01:27:24.958Z,9.50
2023-04-23T01:29:53.049Z,9.50
2023-04-23T01:32:21.527Z,9.60
2023-04-23T01:34:50.133Z,9.60
2023-04-23T01:37:17.996Z,9.80
2023-04-23T01:39:47.093Z,9.60
2023-04-23T01:42:15.028Z,9.60
2023-04-23T01:44:43.068Z,9.60
2023-04-23T01:47:11.397Z,9.60
2023-04-23T01:49:39.604Z,9.70
2023-04-23T01:52:07.389Z,9.60
2023-04-23T01:54:35.385Z,9.60
2023-04-23T01:57:04.746Z,9.60
2023-04-23T01:59:32.598Z,9.50
2023-04-23T02:02:00.848Z,9.50
2023-04-23T02:04:28.860Z,9.50
2023-04-23T02:06:56.845Z,9.50
2023-04-23T02:09:24.854Z,9.50
2023-04-23T02:11:52.720Z,9.50
2023-04-23T02:14:22.076Z,9.50
2023-04-23T02:16:50.025Z,9.50
2023-04-23T02:19:18.186Z,9.50
2023-04-23T02:21:46.443Z,9.50
2023-04-23T02:24:14.869Z,9.50
2023-04-23T02:26:42.815Z,9.50
2023-04-23T02:29:10.795Z,9.60
2023-04-23T02:31:40.125Z,9.50
2023-04-23T02:34:08.375Z,9.50
2023-04-23T02:36:36.609Z,9.40
2023-04-23T02:39:04.514Z,9.40
2023-04-23T02:41:32.384Z,9.40
2023-04-23T02:44:00.214Z,9.40
2023-04-23T02:46:28.459Z,9.40
2023-04-23T02:48:58.039Z,9.40
2023-04-23T02:51:26.127Z,9.50
2023-04-23T02:53:54.096Z,9.50
2023-04-23T02:56:22.064Z,9.60
2023-04-23T02:58:49.954Z,9.50
2023-04-23T03:01:18.069Z,9.50
2023-04-23T03:03:46.219Z,9.50
2023-04-23T03:06:15.797Z,9.50
2023-04-23T03:08:43.809Z,9.50
2023-04-23T03:11:11.944Z,9.60
2023-04-23T03:13:39.858Z,9.50
2023-04-23T03:16:08.164Z,9.50
2023-04-23T03:18:36.115Z,9.50
2023-04-23T03:21:03.979Z,9.50
2023-04-23T03:23:33.561Z,9.50
2023-04-23T03:26:01.780Z,9.50
2023-04-23T03:28:29.733Z,9.60
2023-04-23T03:30:57.717Z,9.60
2023-04-23T03:33:25.769Z,9.60
2023-04-23T03:35:53.557Z,9.70
2023-04-23T03:38:21.553Z,9.70
2023-04-23T03:40:50.859Z,9.70
2023-04-23T03:43:18.757Z,9.70
2023-04-23T03:45:46.683Z,9.70
2023-04-23T03:48:14.747Z,9.70
2023-04-23T03:50:42.715Z,9.80
2023-04-23T03:53:11.408Z,9.80
2023-04-23T03:55:39.343Z,9.80
2023-04-23T03:58:09.283Z,9.80
2023-04-23T04:00:37.305Z,9.90
2023-04-23T04:03:05.548Z,9.80
2023-04-23T04:05:33.519Z,9.70
2023-04-23T04:08:01.735Z,9.70
2023-04-23T04:10:29.708Z,9.70
2023-04-23T04:12:57.558Z,9.70
2023-04-23T04:15:27.196Z,9.60
2023-04-23T04:17:55.361Z,9.60
2023-04-23T04:20:23.295Z,9.60
2023-04-23T04:22:51.233Z,9.60
2023-04-23T04:25:19.452Z,9.60
2023-04-23T04:27:48.230Z,9.60
2023-04-23T04:30:16.352Z,9.60
2023-04-23T04:32:46.349Z,9.60
2023-04-23T04:35:14.783Z,9.60
2023-04-23T04:37:44.232Z,9.60
2023-04-23T04:40:13.143Z,9.60
2023-04-23T04:42:41.123Z,9.60
2023-04-23T04:45:10.332Z,9.50
2023-04-23T04:47:38.301Z,9.50
2023-04-23T04:50:08.466Z,9.50
2023-04-23T04:52:37.215Z,9.40
2023-04-23T04:55:06.812Z,9.40
2023-04-23T04:57:35.196Z,9.40
2023-04-23T05:00:05.292Z,9.40
2023-04-23T05:02:33.428Z,9.40
2023-04-23T05:05:01.249Z,9.40
2023-04-23T05:07:30.564Z,9.40
2023-04-23T05:09:58.540Z,9.40
2023-04-23T05:12:26.246Z,9.50
2023-04-23T05:14:54.403Z,9.50
2023-04-23T05:17:22.552Z,9.60
2023-04-23T05:19:50.967Z,9.70
2023-04-23T05:22:19.450Z,9.70
2023-04-23T05:24:48.991Z,9.80
2023-04-23T05:27:16.986Z,10.00
2023-04-23T05:29:44.937Z,9.90
2023-04-23T05:32:13.116Z,10.00
2023-04-23T05:34:41.491Z,9.90
2023-04-23T05:37:09.909Z,9.90
2023-04-23T05:39:38.109Z,9.80
2023-04-23T05:42:08.175Z,10.00
2023-04-23T05:44:39.182Z,9.90
2023-04-23T05:47:07.482Z,9.90
2023-04-23T05:49:35.283Z,10.00
2023-04-23T05:52:03.550Z,10.00
2023-04-23T05:54:31.481Z,10.00
2023-04-23T05:56:59.942Z,10.10
2023-04-23T05:59:29.376Z,10.20
2023-04-23T06:01:57.447Z,10.30
2023-04-23T06:04:25.440Z,10.50
2023-04-23T06:06:54.006Z,10.50
2023-04-23T06:09:21.902Z,10.80
2023-04-23T06:11:50.748Z,10.70
2023-04-23T06:14:19.170Z,10.80
2023-04-23T06:16:49.117Z,10.90
2023-04-23T06:19:17.012Z,11.00
2023-04-23T06:21:45.594Z,11.10
2023-04-23T06:24:13.786Z,11.20
2023-04-23T06:26:41.824Z,11.20
2023-04-23T06:29:10.064Z,11.30
2023-04-23T06:31:38.162Z,11.40
2023-04-23T06:34:07.541Z,11.40
2023-04-23T06:36:35.650Z,11.50
2023-04-23T06:39:03.700Z,11.50
2023-04-23T06:41:31.737Z,11.60
2023-04-23T06:43:59.875Z,11.60
2023-04-23T06:46:27.781Z,11.70
2023-04-23T06:48:55.598Z,11.80
2023-04-23T06:51:26.748Z,11.90
2023-04-23T06:53:54.596Z,11.90
2023-04-23T06:56:22.677Z,12.00
2023-04-23T06:58:50.696Z,12.00
2023-04-23T07:01:18.756Z,12.10
2023-04-23T07:03:51.435Z,12.20
2023-04-23T07:06:19.537Z,12.20
2023-04-23T07:08:48.856Z,12.30
2023-04-23T07:11:16.799Z,12.40
2023-04-23T07:13:44.553Z,12.50
2023-04-23T07:16:12.618Z,12.60
2023-04-23T07:18:40.773Z,12.70
2023-04-23T07:21:09.064Z,12.80
2023-04-23T07:23:36.860Z,12.90
2023-04-23T07:26:06.340Z,13.00
2023-04-23T07:28:34.025Z,13.10
2023-04-23T07:31:02.979Z,13.30
2023-04-23T07:33:30.976Z,13.30
2023-04-23T07:35:58.947Z,13.40
2023-04-23T07:38:26.960Z,13.50
2023-04-23T07:40:54.805Z,13.60
2023-04-23T07:43:24.403Z,13.70
2023-04-23T07:45:52.478Z,13.80
2023-04-23T07:48:20.579Z,13.90
2023-04-23T07:50:48.614Z,14.00
2023-04-23T07:53:16.405Z,14.00
2023-04-23T07:55:44.364Z,14.10
2023-04-23T07:58:12.594Z,14.30
2023-04-23T08:00:41.788Z,14.40
2023-04-23T08:03:09.721Z,14.40
2023-04-23T08:05:39.290Z,14.50
2023-04-23T08:08:07.377Z,14.60
2023-04-23T08:10:35.557Z,14.70
2023-04-23T08:13:03.404Z,14.70
2023-04-23T08:15:31.349Z,14.90
2023-04-23T08:18:01.008Z,14.80
2023-04-23T08:20:29.028Z,14.90
2023-04-23T08:22:57.006Z,15.00
2023-04-23T08:25:25.094Z,15.00
2023-04-23T08:27:53.180Z,15.10
2023-04-23T08:30:21.197Z,15.30
2023-04-23T08:32:50.501Z,15.40
2023-04-23T08:35:20.093Z,15.50
2023-04-23T08:37:48.021Z,15.60
2023-04-23T08:40:16.834Z,15.60
2023-04-23T08:42:46.181Z,15.70
2023-04-23T08:45:14.438Z,15.70
2023-04-23T08:47:44.183Z,15.70
2023-04-23T08:50:12.948Z,15.80
2023-04-23T08:52:43.322Z,15.90
2023-04-23T08:55:15.125Z,15.90
2023-04-23T08:57:42.994Z,15.90
2023-04-23T09:00:11.840Z,15.90
2023-04-23T09:02:41.140Z,15.90
2023-04-23T09:05:09.644Z,16.00
2023-04-23T09:07:37.753Z,16.10
2023-04-23T09:10:08.020Z,16.00
2023-04-23T09:12:36.755Z,16.00
2023-04-23T09:15:10.661Z,16.10
2023-04-23T09:17:40.552Z,16.20
2023-04-23T09:20:09.701Z,16.40
2023-04-23T09:22:41.307Z,16.30
2023-04-23T09:25:12.074Z,16.30
2023-04-23T09:27:39.990Z,16.40
2023-04-23T09:30:09.896Z,16.50
2023-04-23T09:32:38.613Z,16.60
2023-04-23T09:35:07.044Z,16.60
2023-04-23T09:37:35.550Z,16.60
2023-04-23T09:40:04.374Z,16.60
2023-04-23T09:42:33.796Z,16.70
2023-04-23T09:45:05.775Z,16.60
2023-04-23T09:47:34.664Z,16.60
2023-04-23T09:50:02.789Z,16.60
2023-04-23T09:52:32.325Z,16.50
2023-04-23T09:55:02.334Z,16.40
2023-04-23T09:57:30.337Z,16.40
2023-04-23T10:00:11.097Z,16.40
2023-04-23T10:02:46.904Z,16.50
2023-04-23T10:05:24.206Z,16.60
2023-04-23T10:07:53.660Z,16.70
2023-04-23T10:10:21.595Z,16.80
2023-04-23T10:15:21.322Z,17.00
2023-04-23T10:17:51.324Z,17.10
2023-04-23T10:20:21.533Z,17.10
2023-04-23T10:22:49.391Z,17.30
2023-04-23T10:25:17.296Z,17.40
2023-04-23T10:27:53.653Z,17.50
2023-04-23T10:30:23.421Z,17.60
2023-04-23T10:32:51.679Z,17.60
2023-04-23T10:35:19.559Z,17.50
2023-04-23T10:37:48.312Z,17.50
2023-04-23T10:40:20.047Z,17.40
2023-04-23T10:42:49.554Z,17.40
2023-04-23T10:47:50.277Z,17.60
2023-04-23T10:50:22.878Z,17.70
2023-04-23T10:52:53.636Z,17.70
2023-04-23T10:55:22.523Z,17.80
2023-04-23T10:57:58.697Z,17.70
2023-04-23T11:00:29.081Z,17.70
2023-04-23T11:02:58.530Z,17.60
2023-04-23T11:05:27.989Z,17.60
2023-04-23T11:10:52.102Z,17.60
2023-04-23T11:13:26.361Z,17.60
2023-04-23T11:16:13.140Z,17.70
2023-04-23T11:19:03.909Z,17.80
2023-04-23T11:21:50.174Z,17.80
2023-04-23T11:24:18.209Z,17.80
2023-04-23T11:26:46.752Z,17.80
2023-04-23T11:29:15.724Z,17.70
2023-04-23T11:31:58.488Z,17.90
2023-04-23T11:34:31.549Z,17.90
2023-04-23T11:36:59.689Z,17.90
2023-04-23T11:39:28.584Z,17.90
2023-04-23T11:41:57.069Z,18.00
2023-04-23T11:44:24.890Z,18.10
2023-04-23T11:46:52.718Z,18.10
2023-04-23T11:49:21.691Z,18.20
2023-04-23T11:51:50.935Z,18.20
2023-04-23T11:54:20.256Z,18.40
2023-04-23T11:56:48.024Z,18.60
2023-04-23T11:59:15.887Z,18.60
2023-04-23T12:01:44.705Z,18.50
2023-04-23T12:04:13.820Z,18.60
2023-04-23T12:06:42.818Z,18.60
2023-04-23T13:06:07.887Z,20.10
2023-04-23T13:08:35.797Z,20.10
2023-04-23T13:11:03.657Z,20.00
2023-04-23T13:13:31.697Z,20.00
2023-04-23T13:15:59.404Z,19.80
2023-04-23T13:18:27.181Z,19.70
2023-04-23T13:20:55.013Z,19.60
2023-04-23T13:23:24.080Z,19.50
2023-04-23T13:25:51.862Z,19.40
2023-04-23T13:28:20.025Z,19.40
2023-04-23T13:30:48.057Z,19.50
2023-04-23T13:33:15.932Z,19.40
2023-04-23T13:35:43.813Z,19.20
2023-04-23T13:38:11.757Z,19.10
2023-04-23T13:40:40.954Z,18.80
2023-04-23T13:43:08.929Z,18.70
2023-04-23T13:45:36.897Z,18.50
2023-04-23T13:48:05.168Z,18.30
2023-04-23T13:50:33.167Z,18.10
2023-04-23T13:53:00.969Z,17.90
2023-04-23T13:55:28.822Z,17.70
2023-04-23T13:57:58.962Z,17.40
2023-04-23T14:00:28.480Z,17.10
2023-04-23T14:02:56.445Z,16.80
2023-04-23T14:05:24.703Z,16.60
2023-04-23T14:07:52.798Z,16.40
2023-04-23T14:10:20.814Z,16.00
2023-04-23T14:12:48.934Z,15.70
2023-04-23T14:15:18.054Z,15.40
2023-04-23T14:17:46.039Z,15.10
2023-04-23T14:20:15.787Z,15.10
2023-04-23T14:22:43.961Z,15.00
2023-04-23T14:25:16.670Z,14.80
2023-04-23T14:27:46.866Z,14.80
2023-04-23T14:30:15.910Z,14.70
2023-04-23T14:32:48.649Z,14.60
2023-04-23T14:35:21.280Z,14.60
2023-04-23T14:37:57.342Z,14.60
2023-04-23T14:40:25.169Z,14.60
2023-04-23T14:42:53.764Z,14.60
2023-04-23T14:45:23.284Z,14.60
2023-04-23T14:47:52.650Z,14.60
2023-04-23T14:50:20.478Z,14.60
2023-04-23T14:52:48.849Z,14.60
2023-04-23T14:55:17.190Z,14.60
2023-04-23T14:57:45.073Z,14.60
2023-04-23T15:00:15.557Z,14.50
2023-04-23T15:02:45.949Z,14.60
2023-04-23T15:05:15.818Z,14.60
2023-04-23T15:07:43.731Z,14.50
2023-04-23T15:10:11.909Z,14.60
2023-04-23T15:12:56.110Z,14.50
2023-04-23T15:15:43.023Z,14.50
2023-04-23T15:18:12.186Z,14.50
2023-04-23T15:20:41.523Z,14.50
2023-04-23T15:23:09.771Z,14.50
2023-04-23T15:25:37.836Z,14.50
2023-04-23T15:28:07.011Z,14.50
2023-04-23T15:30:34.750Z,14.40
2023-04-23T15:33:02.669Z,14.40
2023-04-23T15:35:30.648Z,14.30
2023-04-23T15:37:59.782Z,14.30
2023-04-23T15:40:29.382Z,14.30
2023-04-23T15:42:57.695Z,14.30
2023-04-23T15:45:25.636Z,14.10
2023-04-23T15:47:53.721Z,14.10
2023-04-23T15:50:23.264Z,14.00
2023-04-23T15:52:50.989Z,13.90
2023-04-23T15:55:20.510Z,13.80
2023-04-23T15:57:48.477Z,13.90
2023-04-23T16:00:16.923Z,13.90
2023-04-23T16:02:44.822Z,13.80
2023-04-23T16:05:13.245Z,13.70
2023-04-23T16:07:41.268Z,13.70
2023-04-23T16:10:10.136Z,13.70
2023-04-23T16:12:41.601Z,13.70
2023-04-23T16:17:37.875Z,13.90
2023-04-23T16:20:06.071Z,14.00
2023-04-23T16:22:34.031Z,14.00
2023-04-23T16:25:01.759Z,14.10
2023-04-23T16:27:29.995Z,14.00
2023-04-23T16:29:59.129Z,14.00
2023-04-23T16:32:27.231Z,14.00
2023-04-23T16:34:55.183Z,14.00
2023-04-23T16:37:23.067Z,13.90
2023-04-23T16:39:50.943Z,13.90
2023-04-23T16:42:18.895Z,14.00
2023-04-23T16:44:47.260Z,14.00
2023-04-23T16:47:16.401Z,13.90
2023-04-23T16:49:44.910Z,13.90
2023-04-23T16:52:12.752Z,14.00
2023-04-23T16:54:40.845Z,14.00
2023-04-23T16:57:08.894Z,14.00
2023-04-23T16:59:37.488Z,14.00
2023-04-23T17:02:05.489Z,14.10
2023-04-23T17:04:34.901Z,14.10
2023-04-23T17:07:03.012Z,14.10
2023-04-23T17:09:31.975Z,14.10
2023-04-23T17:11:59.946Z,14.10
2023-04-23T17:14:28.026Z,14.00
2023-04-23T17:16:56.113Z,13.90
2023-04-23T17:19:24.057Z,14.00
2023-04-23T17:21:53.158Z,14.00
2023-04-23T17:24:21.195Z,14.00
2023-04-23T17:26:49.202Z,14.00
2023-04-23T17:29:17.128Z,14.00
2023-04-23T17:31:45.233Z,14.00
2023-04-23T17:34:13.201Z,13.90
2023-04-23T17:36:40.972Z,13.90
2023-04-23T17:39:10.341Z,13.80
2023-04-23T17:41:38.296Z,13.80
2023-04-23T17:44:06.052Z,13.70
2023-04-23T17:46:33.982Z,13.60
2023-04-23T17:49:01.997Z,13.60
2023-04-23T17:51:29.858Z,13.60
2023-04-23T17:53:58.273Z,13.50
2023-04-23T17:56:28.645Z,13.50
2023-04-23T17:58:56.309Z,13.50
2023-04-23T18:01:24.117Z,13.40
2023-04-23T18:03:52.395Z,13.40
2023-04-23T18:06:20.646Z,13.40
2023-04-23T18:08:48.484Z,13.40
2023-04-23T18:11:16.559Z,13.40
2023-04-23T18:13:45.737Z,13.40
2023-04-23T18:16:13.715Z,13.30
2023-04-23T18:18:41.726Z,13.40
2023-04-23T18:21:09.511Z,13.40
2023-04-23T18:23:37.277Z,13.30
2023-04-23T18:26:05.298Z,13.30
2023-04-23T18:28:34.881Z,13.30
2023-04-23T18:31:04.673Z,13.30
2023-04-23T18:33:33.790Z,13.30
2023-04-23T18:36:04.129Z,13.20
2023-04-23T18:38:37.561Z,13.20
2023-04-23T18:41:05.957Z,13.00
2023-04-23T18:43:34.339Z,12.90
2023-04-23T18:46:02.854Z,12.70
2023-04-23T18:48:45.949Z,12.70
2023-04-23T18:51:21.438Z,12.60
2023-04-23T18:53:49.438Z,12.60
2023-04-23T18:56:17.301Z,12.60
2023-04-23T18:58:45.259Z,12.40
2023-04-23T19:01:13.212Z,12.30
2023-04-23T19:03:42.911Z,12.20
2023-04-23T19:06:10.803Z,12.20
2023-04-23T19:08:38.976Z,12.10
2023-04-23T19:11:07.355Z,12.10
2023-04-23T19:13:35.193Z,12.10
2023-04-23T19:16:03.165Z,12.00
2023-04-23T19:18:31.031Z,12.00
2023-04-23T19:21:00.196Z,12.00
2023-04-23T19:23:28.019Z,12.00
2023-04-23T19:25:57.257Z,11.90
2023-04-23T19:28:25.634Z,11.90
2023-04-23T19:30:53.548Z,11.80
2023-04-23T19:33:21.228Z,11.80
2023-04-23T19:35:49.285Z,11.70
2023-04-23T19:38:18.685Z,11.70
2023-04-23T19:40:46.478Z,11.70
2023-04-23T19:43:14.315Z,11.70
2023-04-23T19:45:42.176Z,11.70
2023-04-23T19:48:10.463Z,11.60
2023-04-23T19:50:38.368Z,11.60
2023-04-23T19:53:06.826Z,11.50
2023-04-23T19:55:35.963Z,11.40
2023-04-23T19:58:06.655Z,11.40
2023-04-23T20:00:37.545Z,11.40
2023-04-23T20:03:05.960Z,11.40
2023-04-23T20:05:34.049Z,11.40
2023-04-23T20:08:04.540Z,11.40
2023-04-23T20:10:32.855Z,11.40
2023-04-23T20:13:02.029Z,11.50
2023-04-23T20:15:29.924Z,11.50
2023-04-23T20:17:57.678Z,11.50
2023-04-23T20:20:25.751Z,11.40
2023-04-23T20:22:53.609Z,11.30
2023-04-23T20:25:25.547Z,11.30
2023-04-23T20:27:54.117Z,11.20
2023-04-23T20:30:23.568Z,11.20
2023-04-23T20:32:51.727Z,11.10
2023-04-23T20:35:19.611Z,11.10
2023-04-23T20:37:47.912Z,11.10
2023-04-23T20:40:15.687Z,11.10
2023-04-23T20:42:43.497Z,11.00
2023-04-23T20:45:13.117Z,11.00
2023-04-23T20:47:44.416Z,10.90
2023-04-23T20:50:12.479Z,10.80
2023-04-23T20:52:40.379Z,10.90
2023-04-23T20:55:08.659Z,10.90
2023-04-23T20:57:37.065Z,10.90
2023-04-23T21:00:07.155Z,10.90
2023-04-23T21:02:37.860Z,10.90
2023-04-23T21:05:08.170Z,10.80
2023-04-23T21:07:36.685Z,10.80
2023-04-23T21:10:04.599Z,10.80
2023-04-23T21:12:32.561Z,10.80
2023-04-23T21:15:00.614Z,10.80
2023-04-23T21:17:28.508Z,10.80
2023-04-23T21:19:56.293Z,10.80
2023-04-23T21:22:25.563Z,10.70
2023-04-23T21:24:53.275Z,10.70
2023-04-23T21:27:21.976Z,10.70
2023-04-23T21:29:50.232Z,10.70
2023-04-23T21:32:18.106Z,10.60
2023-04-23T21:34:46.262Z,10.60
2023-04-23T21:37:14.057Z,10.60
2023-04-23T21:39:43.396Z,10.60
2023-04-23T21:42:11.459Z,10.60
2023-04-23T21:44:40.728Z,10.60
2023-04-23T21:47:08.546Z,10.60
2023-04-23T21:49:37.039Z,10.60
2023-04-23T21:52:04.974Z,10.60
2023-04-23T21:54:32.876Z,10.60
2023-04-23T21:57:02.692Z,10.60
2023-04-23T21:59:30.921Z,10.60
2023-04-23T22:01:59.188Z,10.80
2023-04-23T22:04:27.886Z,10.70
2023-04-23T22:06:55.821Z,10.70
2023-04-23T22:09:23.807Z,10.70
2023-04-23T22:12:01.566Z,10.70
2023-04-23T22:14:32.295Z,10.70
2023-04-23T22:17:02.005Z,10.70
2023-04-23T22:19:31.170Z,10.70
2023-04-23T22:21:59.165Z,10.70
2023-04-23T22:24:27.130Z,10.70
2023-04-23T22:26:55.067Z,10.70
2023-04-23T22:29:22.815Z,10.80
2023-04-23T22:31:52.016Z,10.80
2023-04-23T22:34:19.909Z,10.80
2023-04-23T22:36:47.721Z,10.80
2023-04-23T22:39:15.747Z,10.70
2023-04-23T22:41:43.504Z,10.70
2023-04-23T22:44:11.496Z,10.70
2023-04-23T22:46:40.433Z,10.70
2023-04-23T22:49:11.208Z,10.70
2023-04-23T22:51:39.805Z,10.70
2023-04-23T22:54:07.745Z,10.60
2023-04-23T22:56:35.673Z,10.60
2023-04-23T22:59:05.069Z,10.60
2023-04-23T23:01:32.970Z,10.60
2023-04-23T23:04:00.872Z,10.60
2023-04-23T23:06:30.412Z,10.60
2023-04-23T23:08:58.203Z,10.70
2023-04-23T23:11:26.093Z,10.60
2023-04-23T23:13:54.093Z,10.60
2023-04-23T23:16:21.992Z,10.60
2023-04-23T23:18:50.042Z,10.70
2023-04-23T23:21:18.318Z,10.60
2023-04-23T23:23:47.400Z,10.70
2023-04-23T23:26:15.181Z,10.70
2023-04-23T23:28:43.111Z,10.70
2023-04-23T23:31:10.982Z,10.70
2023-04-23T23:33:39.612Z,10.70
2023-04-23T23:36:08.409Z,10.70
2023-04-23T23:38:36.175Z,10.70
2023-04-23T23:41:05.338Z,10.70
2023-04-23T23:43:33.097Z,10.60
2023-04-23T23:46:00.849Z,10.60
2023-04-23T23:48:30.656Z,10.60
2023-04-23T23:50:58.549Z,10.70
2023-04-23T23:53:26.509Z,10.70
2023-04-23T23:55:54.275Z,10.60
2023-04-23T23:58:23.665Z,10.60
